createdAt,value
2018-02-03T00:00:19.977Z,4.60
2018-02-03T00:01:19.920Z,2.70
2018-02-03T00:02:19.860Z,2.60
2018-02-03T00:03:19.799Z,2.80
2018-02-03T00:04:19.739Z,3.50
2018-02-03T00:05:19.680Z,2.90
2018-02-03T00:06:19.621Z,2.60
2018-02-03T00:07:19.562Z,2.60
2018-02-03T00:08:19.502Z,3.50
2018-02-03T00:09:19.440Z,2.70
2018-02-03T00:10:19.384Z,3.20
2018-02-03T00:11:19.321Z,4.30
2018-02-03T00:12:19.262Z,3.10
2018-02-03T00:13:19.204Z,2.80
2018-02-03T00:14:19.143Z,2.90
2018-02-03T00:15:19.084Z,3.10
2018-02-03T00:16:19.023Z,3.40
2018-02-03T00:17:18.964Z,2.70
2018-02-03T00:18:18.906Z,2.90
2018-02-03T00:19:18.845Z,3.20
2018-02-03T00:20:18.785Z,2.90
2018-02-03T00:21:18.725Z,3.10
2018-02-03T00:22:18.665Z,3.40
2018-02-03T00:23:18.606Z,3.10
2018-02-03T00:24:18.547Z,3.50
2018-02-03T00:25:18.486Z,3.30
2018-02-03T00:26:18.428Z,3.40
2018-02-03T00:27:18.367Z,3.00
2018-02-03T00:28:18.306Z,3.50
2018-02-03T00:29:18.247Z,2.80
2018-02-03T00:30:18.188Z,3.60
2018-02-03T00:31:18.130Z,4.70
2018-02-03T00:32:18.069Z,3.30
2018-02-03T00:33:18.009Z,4.60
2018-02-03T00:34:17.949Z,3.30
2018-02-03T00:35:17.891Z,3.10
2018-02-03T00:36:17.829Z,3.70
2018-02-03T00:37:17.771Z,3.20
2018-02-03T00:38:17.710Z,3.20
2018-02-03T00:39:17.652Z,3.80
2018-02-03T00:40:17.589Z,2.90
2018-02-03T00:41:17.530Z,3.60
2018-02-03T00:42:17.472Z,2.90
2018-02-03T00:43:17.412Z,2.80
2018-02-03T00:44:17.352Z,2.90
2018-02-03T00:45:17.292Z,3.00
2018-02-03T00:46:17.232Z,3.10
2018-02-03T00:47:17.173Z,3.10
2018-02-03T00:48:17.113Z,2.70
2018-02-03T00:49:17.055Z,3.50
2018-02-03T00:50:16.996Z,2.90
2018-02-03T00:51:16.933Z,2.90
2018-02-03T00:52:16.875Z,3.50
2018-02-03T00:53:16.814Z,3.00
2018-02-03T00:54:16.755Z,2.90
2018-02-03T00:55:16.697Z,3.00
2018-02-03T00:56:16.635Z,4.00
2018-02-03T00:57:16.575Z,3.60
2018-02-03T00:58:16.516Z,3.00
2018-02-03T00:59:16.456Z,3.20
2018-02-03T01:00:16.396Z,4.00
2018-02-03T01:01:16.337Z,2.80
2018-02-03T01:02:16.277Z,3.00
2018-02-03T01:03:16.218Z,2.90
2018-02-03T01:04:16.157Z,3.20
2018-02-03T01:05:16.099Z,2.70
2018-02-03T01:06:16.038Z,3.30
2018-02-03T01:07:15.979Z,4.00
2018-02-03T01:08:15.918Z,3.00
2018-02-03T01:09:15.858Z,2.60
2018-02-03T01:10:15.799Z,3.20
2018-02-03T01:11:15.738Z,3.40
2018-02-03T01:12:15.678Z,2.60
2018-02-03T01:13:15.619Z,3.50
2018-02-03T01:14:15.560Z,2.90
2018-02-03T01:15:15.499Z,3.00
2018-02-03T01:16:15.439Z,2.70
2018-02-03T01:17:15.379Z,3.20
2018-02-03T01:18:15.321Z,2.90
2018-02-03T01:19:15.262Z,3.60
2018-02-03T01:20:15.200Z,3.00
2018-02-03T01:21:15.141Z,2.50
2018-02-03T01:22:15.082Z,3.10
2018-02-03T01:23:15.023Z,3.30
2018-02-03T01:24:14.983Z,2.80
2018-02-03T01:25:14.904Z,2.90
2018-02-03T01:26:14.844Z,2.60
2018-02-03T01:27:14.783Z,3.40
2018-02-03T01:28:14.723Z,2.90
2018-02-03T01:29:14.663Z,2.70
2018-02-03T01:30:14.605Z,3.20
2018-02-03T01:31:14.544Z,2.70
2018-02-03T01:32:14.485Z,2.70
2018-02-03T01:33:14.424Z,3.30
2018-02-03T01:34:14.365Z,2.60
2018-02-03T01:35:14.304Z,2.60
2018-02-03T01:36:14.243Z,3.40
2018-02-03T01:37:14.184Z,3.70
2018-02-03T01:38:14.126Z,2.90
2018-02-03T01:39:14.065Z,2.90
2018-02-03T01:40:14.006Z,3.00
2018-02-03T01:41:13.945Z,2.80
2018-02-03T01:42:13.888Z,3.00
2018-02-03T01:43:13.826Z,3.00
2018-02-03T01:44:13.765Z,2.50
2018-02-03T01:45:13.705Z,3.50
2018-02-03T01:46:13.647Z,3.30
2018-02-03T01:47:13.586Z,2.60
2018-02-03T01:48:13.525Z,2.70
2018-02-03T01:49:13.521Z,3.50
2018-02-03T01:50:13.406Z,3.20
2018-02-03T01:51:13.347Z,2.40
2018-02-03T01:52:13.287Z,2.40
2018-02-03T01:53:13.228Z,2.60
2018-02-03T01:54:13.169Z,2.70
2018-02-03T01:55:13.107Z,2.70
2018-02-03T01:56:13.047Z,2.50
2018-02-03T01:57:12.989Z,3.00
2018-02-03T01:58:12.928Z,3.40
2018-02-03T01:59:12.868Z,2.50
2018-02-03T02:00:12.809Z,2.40
2018-02-03T02:01:12.749Z,2.60
2018-02-03T02:02:12.689Z,2.80
2018-02-03T02:03:12.630Z,2.90
2018-02-03T02:04:12.567Z,2.70
2018-02-03T02:05:12.509Z,3.80
2018-02-03T02:06:12.450Z,2.40
2018-02-03T02:07:12.392Z,2.50
2018-02-03T02:08:12.329Z,2.90
2018-02-03T02:09:12.270Z,3.10
2018-02-03T02:10:12.211Z,3.70
2018-02-03T02:11:12.150Z,2.70
2018-02-03T02:12:12.089Z,3.10
2018-02-03T02:13:12.029Z,3.30
2018-02-03T02:14:11.970Z,2.50
2018-02-03T02:15:11.911Z,2.30
2018-02-03T02:16:11.850Z,2.80
2018-02-03T02:17:11.791Z,2.40
2018-02-03T02:18:11.731Z,2.80
2018-02-03T02:19:11.672Z,3.30
2018-02-03T02:20:11.611Z,2.40
2018-02-03T02:21:11.550Z,2.40
2018-02-03T02:22:11.491Z,2.50
2018-02-03T02:23:11.432Z,2.40
2018-02-03T02:24:11.371Z,2.70
2018-02-03T02:25:11.313Z,3.50
2018-02-03T02:26:11.251Z,2.40
2018-02-03T02:27:11.193Z,3.80
2018-02-03T02:28:11.131Z,2.70
2018-02-03T02:29:11.073Z,2.70
2018-02-03T02:30:11.013Z,2.60
2018-02-03T02:31:10.954Z,2.50
2018-02-03T02:32:10.892Z,3.00
2018-02-03T02:33:10.832Z,2.30
2018-02-03T02:34:10.771Z,2.70
2018-02-03T02:35:10.715Z,3.00
2018-02-03T02:36:10.652Z,2.90
2018-02-03T02:37:10.595Z,2.40
2018-02-03T02:38:10.533Z,2.40
2018-02-03T02:39:10.473Z,3.30
2018-02-03T02:40:10.412Z,2.50
2018-02-03T02:41:10.352Z,2.80
2018-02-03T02:42:10.295Z,3.30
2018-02-03T02:43:10.233Z,2.90
2018-02-03T02:44:10.173Z,2.80
2018-02-03T02:45:10.114Z,3.60
2018-02-03T02:46:10.055Z,2.80
2018-02-03T02:47:09.994Z,2.70
2018-02-03T02:48:09.933Z,2.70
2018-02-03T02:49:09.876Z,3.00
2018-02-03T02:50:09.814Z,2.80
2018-02-03T02:51:09.758Z,2.70
2018-02-03T02:52:09.694Z,2.60
2018-02-03T02:53:09.634Z,2.50
2018-02-03T02:54:09.574Z,2.30
2018-02-03T02:55:09.513Z,3.50
2018-02-03T02:56:09.453Z,3.10
2018-02-03T02:57:16.708Z,2.80
2018-02-03T02:58:09.334Z,3.40
2018-02-03T02:59:09.276Z,2.40
2018-02-03T03:00:09.213Z,3.40
2018-02-03T03:01:09.154Z,2.40
2018-02-03T03:02:09.094Z,2.40
2018-02-03T03:03:09.037Z,2.70
2018-02-03T03:04:08.975Z,3.10
2018-02-03T03:05:08.914Z,2.60
2018-02-03T03:06:08.855Z,2.90
2018-02-03T03:07:08.794Z,2.50
2018-02-03T03:08:08.735Z,2.80
2018-02-03T03:09:08.674Z,2.80
2018-02-03T03:10:08.614Z,2.50
2018-02-03T03:11:08.555Z,2.40
2018-02-03T03:12:08.494Z,2.30
2018-02-03T03:13:08.435Z,3.00
2018-02-03T03:14:08.376Z,2.70
2018-02-03T03:15:08.315Z,2.70
2018-02-03T03:16:08.254Z,3.10
2018-02-03T03:17:08.195Z,2.40
2018-02-03T03:18:08.135Z,2.70
2018-02-03T03:19:08.076Z,3.10
2018-02-03T03:20:08.015Z,2.90
2018-02-03T03:21:07.954Z,2.50
2018-02-03T03:22:07.895Z,3.20
2018-02-03T03:23:07.835Z,2.70
2018-02-03T03:24:07.775Z,2.90
2018-02-03T03:25:07.715Z,2.70
2018-02-03T03:26:07.655Z,2.90
2018-02-03T03:27:07.597Z,2.90
2018-02-03T03:28:07.534Z,2.40
2018-02-03T03:29:07.475Z,3.00
2018-02-03T03:30:07.416Z,2.90
2018-02-03T03:31:07.355Z,2.50
2018-02-03T03:32:07.298Z,3.00
2018-02-03T03:33:07.235Z,2.50
2018-02-03T03:34:07.175Z,2.50
2018-02-03T03:35:07.115Z,2.50
2018-02-03T03:36:07.054Z,3.60
2018-02-03T03:37:06.996Z,2.40
2018-02-03T03:38:06.935Z,2.90
2018-02-03T03:39:06.876Z,2.70
2018-02-03T03:40:06.815Z,2.90
2018-02-03T03:41:06.755Z,2.70
2018-02-03T03:42:06.695Z,2.60
2018-02-03T03:43:06.637Z,2.60
2018-02-03T03:44:06.576Z,3.00
2018-02-03T03:45:06.515Z,2.80
2018-02-03T03:46:06.457Z,3.40
2018-02-03T03:47:06.394Z,2.40
2018-02-03T03:48:06.334Z,2.60
2018-02-03T03:49:06.276Z,2.80
2018-02-03T03:50:06.215Z,3.40
2018-02-03T03:51:06.159Z,2.30
2018-02-03T03:52:06.096Z,2.40
2018-02-03T03:53:06.036Z,2.50
2018-02-03T03:54:05.975Z,2.70
2018-02-03T03:55:05.916Z,2.40
2018-02-03T03:56:05.855Z,3.00
2018-02-03T03:57:05.794Z,3.00
2018-02-03T03:58:05.735Z,3.30
2018-02-03T03:59:05.679Z,2.90
2018-02-03T04:00:05.615Z,2.70
2018-02-03T04:01:05.554Z,3.50
2018-02-03T04:02:05.496Z,2.40
2018-02-03T04:03:05.434Z,3.00
2018-02-03T04:04:05.374Z,2.40
2018-02-03T04:05:05.315Z,2.50
2018-02-03T04:06:05.254Z,2.70
2018-02-03T04:07:05.201Z,2.50
2018-02-03T04:08:05.134Z,2.90
2018-02-03T04:09:05.076Z,2.80
2018-02-03T04:10:05.014Z,2.50
2018-02-03T04:11:04.956Z,2.80
2018-02-03T04:12:04.895Z,2.80
2018-02-03T04:13:04.833Z,2.50
2018-02-03T04:14:04.775Z,2.50
2018-02-03T04:15:04.714Z,2.90
2018-02-03T04:16:04.655Z,2.50
2018-02-03T04:17:04.594Z,2.60
2018-02-03T04:18:04.532Z,2.80
2018-02-03T04:19:04.474Z,2.50
2018-02-03T04:20:04.413Z,3.50
2018-02-03T04:21:04.353Z,2.80
2018-02-03T04:22:04.294Z,3.30
2018-02-03T04:23:04.233Z,2.90
2018-02-03T04:24:04.172Z,2.60
2018-02-03T04:25:04.113Z,2.40
2018-02-03T04:26:04.055Z,2.50
2018-02-03T04:27:03.993Z,2.70
2018-02-03T04:28:03.934Z,2.40
2018-02-03T04:29:03.873Z,2.40
2018-02-03T04:30:03.814Z,2.60
2018-02-03T04:31:03.755Z,2.50
2018-02-03T04:32:03.693Z,3.00
2018-02-03T04:33:03.634Z,2.70
2018-02-03T04:34:03.574Z,2.80
2018-02-03T04:35:03.516Z,2.40
2018-02-03T04:36:03.453Z,3.00
2018-02-03T04:37:03.394Z,2.60
2018-02-03T04:38:03.335Z,2.50
2018-02-03T04:39:03.273Z,2.30
2018-02-03T04:40:03.213Z,2.50
2018-02-03T04:41:03.152Z,2.90
2018-02-03T04:42:03.092Z,3.20
2018-02-03T04:43:03.033Z,3.00
2018-02-03T04:44:02.972Z,2.40
2018-02-03T04:45:02.914Z,2.60
2018-02-03T04:46:02.854Z,2.30
2018-02-03T04:47:02.794Z,2.60
2018-02-03T04:48:02.732Z,2.40
2018-02-03T04:49:02.672Z,2.30
2018-02-03T04:50:02.612Z,3.10
2018-02-03T04:51:02.552Z,2.50
2018-02-03T04:52:02.490Z,2.60
2018-02-03T04:53:02.431Z,2.60
2018-02-03T04:54:02.371Z,2.40
2018-02-03T04:55:02.312Z,2.40
2018-02-03T04:56:02.250Z,2.50
2018-02-03T04:57:02.190Z,2.70
2018-02-03T04:58:02.131Z,2.70
2018-02-03T04:59:02.071Z,2.40
2018-02-03T05:00:02.010Z,2.90
2018-02-03T05:01:01.950Z,2.30
2018-02-03T05:02:01.890Z,2.90
2018-02-03T05:03:01.830Z,2.60
2018-02-03T05:04:01.769Z,2.50
2018-02-03T05:05:01.710Z,2.80
2018-02-03T05:06:01.649Z,3.30
2018-02-03T05:07:01.592Z,2.90
2018-02-03T05:08:01.528Z,2.40
2018-02-03T05:09:01.468Z,2.30
2018-02-03T05:10:01.408Z,2.50
2018-02-03T05:11:01.350Z,2.40
2018-02-03T05:12:01.287Z,2.40
2018-02-03T05:13:01.229Z,3.70
2018-02-03T05:14:01.168Z,2.50
2018-02-03T05:15:01.109Z,3.40
2018-02-03T05:16:01.048Z,3.10
2018-02-03T05:17:00.989Z,3.40
2018-02-03T05:18:00.928Z,2.50
2018-02-03T05:19:00.867Z,2.00
2018-02-03T05:20:00.806Z,3.30
2018-02-03T05:21:00.745Z,2.40
2018-02-03T05:22:00.687Z,2.50
2018-02-03T05:23:00.626Z,3.10
2018-02-03T05:24:00.568Z,2.10
2018-02-03T05:25:00.506Z,3.60
2018-02-03T05:26:00.447Z,2.60
2018-02-03T05:27:00.386Z,3.20
2018-02-03T05:28:00.325Z,2.80
2018-02-03T05:29:00.266Z,2.50
2018-02-03T05:30:00.204Z,2.90
2018-02-03T05:31:00.146Z,2.60
2018-02-03T05:32:00.083Z,2.20
2018-02-03T05:33:00.030Z,2.40
2018-02-03T05:33:59.969Z,3.00
2018-02-03T05:34:59.904Z,3.40
2018-02-03T05:35:59.842Z,2.40
2018-02-03T05:36:59.783Z,2.50
2018-02-03T05:37:59.723Z,2.30
2018-02-03T05:38:59.664Z,2.30
2018-02-03T05:39:59.602Z,3.20
2018-02-03T05:40:59.541Z,2.40
2018-02-03T05:41:59.483Z,2.30
2018-02-03T19:20:59.878Z,2.40
2018-02-03T19:21:59.792Z,3.40
2018-02-03T19:23:52.570Z,3.10
2018-02-03T19:24:52.484Z,3.40
2018-02-03T19:26:45.244Z,3.60
2018-02-03T19:27:45.179Z,3.30
2018-02-03T19:29:37.968Z,3.00
2018-02-03T19:30:37.882Z,3.40
2018-02-03T19:32:30.648Z,3.10
2018-02-03T19:33:30.580Z,2.90
2018-02-03T19:35:23.363Z,3.00
2018-02-03T19:36:23.278Z,3.10
2018-02-03T19:38:16.048Z,3.10
2018-02-03T19:39:15.985Z,2.90
2018-02-03T19:41:08.766Z,2.80
2018-02-03T19:42:08.679Z,3.20
2018-02-03T19:44:01.459Z,2.90
2018-02-03T19:45:01.374Z,2.80
2018-02-03T19:46:54.160Z,2.90
2018-02-03T19:47:54.073Z,2.70
2018-02-03T19:49:46.836Z,2.80
2018-02-03T19:50:46.776Z,2.80
2018-02-03T19:52:39.560Z,2.90
2018-02-03T19:53:39.472Z,2.80
2018-02-03T19:55:32.237Z,2.80
2018-02-03T19:56:32.166Z,2.80
2018-02-03T19:58:24.947Z,2.40
2018-02-03T19:59:24.861Z,2.90
2018-02-03T20:01:17.647Z,2.80
2018-02-03T20:02:17.562Z,2.70
2018-02-03T20:04:10.348Z,2.50
2018-02-03T20:05:10.260Z,2.70
2018-02-03T20:07:03.028Z,3.00
2018-02-03T20:08:02.960Z,2.90
2018-02-03T20:09:55.742Z,2.80
2018-02-03T20:10:55.683Z,3.00
2018-02-03T20:12:48.424Z,2.70
2018-02-03T20:13:48.354Z,2.60
2018-02-03T20:15:41.138Z,3.00
2018-02-03T20:16:41.060Z,2.90
2018-02-03T20:18:33.823Z,3.10
2018-02-03T20:19:33.747Z,3.00
2018-02-03T20:21:26.533Z,2.80
2018-02-03T20:22:26.448Z,2.70
2018-02-03T20:24:19.217Z,3.00
2018-02-03T20:25:19.146Z,2.90
2018-02-03T20:27:11.932Z,3.30
2018-02-03T20:28:11.847Z,2.90
2018-02-03T20:30:04.611Z,2.90
2018-02-03T20:31:04.546Z,2.80
2018-02-03T20:32:57.363Z,3.50
2018-02-03T20:33:57.272Z,3.10
2018-02-03T20:35:50.037Z,2.90
2018-02-03T20:36:49.970Z,3.20
2018-02-03T20:38:43.357Z,3.40
2018-02-03T20:39:43.074Z,3.40
2018-02-03T20:41:35.652Z,2.90
2018-02-03T20:42:35.566Z,3.50
2018-02-03T20:44:28.386Z,3.50
2018-02-03T20:45:28.267Z,3.10
2018-02-03T20:47:21.048Z,3.30
2018-02-03T20:48:20.960Z,3.00
2018-02-03T20:50:13.723Z,3.70
2018-02-03T20:51:13.659Z,3.60
2018-02-03T20:53:06.447Z,3.60
2018-02-03T20:54:06.356Z,3.30
2018-02-03T20:55:59.119Z,3.40
2018-02-03T20:56:59.057Z,3.60
2018-02-03T20:58:51.843Z,3.60
2018-02-03T20:59:51.757Z,3.50
2018-02-03T21:01:45.128Z,3.40
2018-02-03T21:02:44.842Z,3.00
2018-02-03T21:04:37.423Z,3.30
2018-02-03T21:05:37.338Z,3.70
2018-02-03T21:07:30.121Z,3.10
2018-02-03T21:08:30.042Z,4.30
2018-02-03T21:10:22.819Z,3.30
2018-02-03T21:11:22.731Z,3.20
2018-02-03T21:13:15.515Z,3.30
2018-02-03T21:14:15.429Z,3.30
2018-02-03T21:16:08.212Z,3.30
2018-02-03T21:17:08.124Z,3.40
2018-02-03T21:19:00.908Z,3.40
2018-02-03T21:20:00.823Z,3.20
2018-02-03T21:21:53.584Z,3.40
2018-02-03T21:22:53.521Z,3.50
2018-02-03T21:24:46.306Z,3.40
2018-02-03T21:25:46.222Z,3.50
2018-02-03T21:27:38.982Z,3.70
2018-02-03T21:28:38.922Z,3.90
2018-02-03T21:30:31.704Z,3.70
2018-02-03T21:31:31.618Z,3.30
2018-02-03T21:33:24.383Z,3.40
2018-02-03T21:34:24.313Z,3.60
2018-02-03T21:36:17.098Z,3.30
2018-02-03T21:37:17.014Z,3.70
2018-02-03T21:39:09.780Z,3.60
2018-02-03T21:40:09.713Z,3.50
2018-02-03T21:42:02.502Z,3.60
2018-02-03T21:43:02.417Z,3.70
2018-02-03T21:44:55.178Z,3.60
2018-02-03T21:45:55.116Z,3.80
2018-02-03T21:47:47.897Z,3.80
2018-02-03T21:48:47.811Z,3.70
2018-02-03T21:50:40.595Z,4.80
2018-02-03T21:51:40.506Z,3.70
2018-02-03T21:53:33.289Z,3.70
2018-02-03T21:54:33.205Z,3.90
2018-02-03T21:56:25.977Z,3.90
2018-02-03T21:57:25.913Z,3.80
2018-02-03T21:59:18.696Z,4.10
2018-02-03T22:00:18.610Z,3.70
2018-02-03T22:02:11.371Z,3.90
2018-02-03T22:03:11.306Z,4.10
2018-02-03T22:05:04.091Z,4.20
2018-02-03T22:06:04.005Z,4.00
2018-02-03T22:07:56.789Z,3.80
2018-02-03T22:08:56.704Z,4.00
2018-02-03T22:10:49.509Z,4.20
2018-02-03T22:11:49.420Z,4.00
2018-02-03T22:13:42.206Z,3.80
2018-02-03T22:14:42.115Z,3.80
2018-02-03T22:16:34.876Z,4.10
2018-02-03T22:17:34.812Z,4.00
2018-02-03T22:19:27.593Z,4.50
2018-02-03T22:20:27.508Z,4.50
2018-02-03T22:22:20.268Z,4.50
2018-02-03T22:23:20.205Z,4.90
2018-02-03T22:25:12.987Z,4.60
2018-02-03T22:26:12.902Z,4.10
2018-02-03T22:28:05.686Z,3.90
2018-02-03T22:29:05.599Z,4.30
2018-02-03T22:30:58.381Z,4.40
2018-02-03T22:31:58.296Z,3.80
2018-02-03T22:33:51.058Z,4.20
2018-02-03T22:34:50.994Z,4.40
2018-02-03T22:36:43.788Z,4.10
2018-02-03T22:37:43.701Z,4.30
2018-02-03T22:39:36.462Z,4.30
2018-02-03T22:40:36.400Z,4.20
2018-02-03T22:42:29.182Z,3.90
2018-02-03T22:43:29.095Z,4.30
2018-02-03T22:45:21.879Z,4.10
2018-02-03T22:46:21.794Z,4.10
2018-02-03T22:48:14.578Z,4.10
2018-02-03T22:49:14.491Z,4.70
2018-02-03T22:51:07.251Z,4.20
2018-02-03T22:52:07.186Z,4.00
2018-02-03T22:53:59.968Z,4.30
2018-02-03T22:54:59.883Z,4.00
2018-02-03T22:56:52.648Z,4.00
2018-02-03T22:57:52.582Z,4.30
2018-02-03T22:59:45.367Z,4.10
2018-02-03T23:00:45.281Z,4.10
2018-02-03T23:02:38.064Z,4.40
2018-02-03T23:03:37.979Z,4.50
2018-02-03T23:05:30.759Z,4.20
2018-02-03T23:06:30.674Z,4.00
2018-02-03T23:08:23.438Z,4.00
2018-02-03T23:09:23.372Z,4.40
2018-02-03T23:11:16.153Z,4.30
2018-02-03T23:12:16.068Z,4.20
2018-02-03T23:14:08.830Z,4.20
2018-02-03T23:15:08.764Z,4.20
2018-02-03T23:17:01.547Z,4.50
2018-02-03T23:18:01.460Z,4.20
2018-02-03T23:19:54.221Z,4.20
2018-02-03T23:20:54.157Z,3.90
2018-02-03T23:22:46.942Z,4.20
2018-02-03T23:23:46.854Z,4.40
2018-02-03T23:25:39.615Z,4.30
2018-02-03T23:26:39.550Z,4.20
2018-02-03T23:28:32.334Z,4.10
2018-02-03T23:29:32.249Z,4.10
2018-02-03T23:31:25.028Z,4.40
2018-02-03T23:32:24.971Z,4.80
2018-02-03T23:34:17.769Z,4.00
2018-02-03T23:35:17.658Z,4.00
2018-02-03T23:37:10.441Z,3.90
2018-02-03T23:38:10.357Z,4.30
2018-02-03T23:40:03.137Z,4.30
2018-02-03T23:41:03.052Z,4.80
2018-02-03T23:42:55.832Z,4.10
2018-02-03T23:43:55.746Z,3.90
2018-02-03T23:45:48.529Z,3.90
2018-02-03T23:46:48.443Z,4.10
2018-02-03T23:48:41.204Z,4.20
2018-02-03T23:49:41.142Z,4.00
2018-02-03T23:51:33.926Z,4.00
2018-02-03T23:52:33.838Z,4.40
2018-02-03T23:54:26.621Z,4.30
2018-02-03T23:55:26.536Z,4.10
2018-02-03T23:57:19.319Z,4.10
2018-02-03T23:58:19.232Z,4.10
